Time;durP1;ratioP1;P1;durP2;ratioP2;P2;SDS_P1;SDS_P2;PMS_P1;PMS_P2;Temp;Humidity;BMP_temperature;BMP_pressure;BME280_temperature;BME280_humidity;BME280_pressure;Samples;Min_cycle;Max_cycle;Signal;HPM_P1;HPM_P2
2021/11/08 00:01:40;;;;;;;4.90;3.47;;;;;;;5.02;100.00;98291.47;5070212;28;20616;-75
2021/11/08 00:04:10;;;;;;;4.70;4.30;;;;;;;4.96;100.00;98289.34;5070379;28;20689;-76
2021/11/08 00:06:38;;;;;;;4.57;3.73;;;;;;;4.90;100.00;98292.44;5071822;28;20962;-72
2021/11/08 00:09:06;;;;;;;7.30;4.80;;;;;;;4.73;100.00;98286.72;5072673;28;20218;-76
2021/11/08 00:11:36;;;;;;;8.43;4.57;;;;;;;4.70;100.00;98286.97;5055363;28;20222;-72
2021/11/08 00:14:06;;;;;;;5.07;4.57;;;;;;;4.66;100.00;98293.41;5061847;28;20229;-75
2021/11/08 00:16:37;;;;;;;4.67;4.27;;;;;;;4.60;100.00;98291.25;5081380;28;20228;-73
2021/11/08 00:19:22;;;;;;;5.53;3.97;;;;;;;4.52;100.00;98293.63;5077776;28;20202;-76
2021/11/08 00:21:52;;;;;;;4.20;3.90;;;;;;;4.54;100.00;98295.19;5069856;28;20213;-76
2021/11/08 00:24:24;;;;;;;7.93;4.70;;;;;;;4.70;100.00;98299.25;5074461;28;20210;-77
2021/11/08 00:26:53;;;;;;;5.73;4.10;;;;;;;4.44;100.00;98304.72;5032813;28;21831;-77
2021/11/08 00:29:21;;;;;;;4.83;4.00;;;;;;;4.41;100.00;98316.28;5084432;28;20665;-77
2021/11/08 00:31:50;;;;;;;5.77;4.63;;;;;;;4.30;100.00;98317.09;5046423;28;20218;-74
2021/11/08 00:34:18;;;;;;;4.13;3.73;;;;;;;4.21;100.00;98315.16;5082849;28;20435;-76
2021/11/08 00:36:50;;;;;;;4.27;3.60;;;;;;;4.21;100.00;98325.66;5082093;28;20289;-75
2021/11/08 00:39:19;;;;;;;6.23;3.77;;;;;;;4.31;100.00;98318.75;5076657;28;20206;-76
2021/11/08 00:41:47;;;;;;;5.80;3.83;;;;;;;4.48;100.00;98324.53;5079384;28;20221;-73
2021/11/08 00:44:15;;;;;;;7.47;4.50;;;;;;;4.41;100.00;98331.22;5083162;28;20204;-76
2021/11/08 00:46:44;;;;;;;4.83;3.67;;;;;;;4.34;100.00;98331.66;5052127;28;20735;-74
2021/11/08 00:49:14;;;;;;;8.27;4.30;;;;;;;4.33;100.00;98331.78;5076204;28;20537;-76
2021/11/08 00:51:44;;;;;;;4.40;3.47;;;;;;;4.24;100.00;98335.94;5083011;28;20591;-74
2021/11/08 00:54:14;;;;;;;6.37;3.70;;;;;;;4.18;100.00;98344.25;5081559;28;20486;-77
2021/11/08 00:56:47;;;;;;;7.03;3.93;;;;;;;4.17;100.00;98340.81;5083746;28;20199;-75
2021/11/08 00:59:16;;;;;;;4.60;4.07;;;;;;;4.18;100.00;98344.25;5078227;28;20557;-76
2021/11/08 01:01:46;;;;;;;8.97;4.43;;;;;;;4.23;100.00;98349.19;5047039;28;20213;-72
2021/11/08 01:04:19;;;;;;;4.40;3.63;;;;;;;4.26;100.00;98344.50;5074033;28;20292;-74
2021/11/08 01:06:48;;;;;;;6.83;4.27;;;;;;;4.30;100.00;98350.38;5078390;28;20666;-73
2021/11/08 01:09:17;;;;;;;6.23;4.00;;;;;;;4.34;100.00;98352.63;5077172;28;20741;-76
2021/11/08 01:11:46;;;;;;;4.20;3.80;;;;;;;4.43;100.00;98356.38;5082626;28;20194;-73
2021/11/08 01:14:16;;;;;;;6.43;4.20;;;;;;;4.38;100.00;98357.69;5078031;28;20554;-76
2021/11/08 01:16:45;;;;;;;4.03;3.73;;;;;;;4.33;100.00;98361.47;5044726;28;20217;-73
2021/11/08 01:19:14;;;;;;;6.83;3.53;;;;;;;4.28;100.00;98360.16;5078673;28;20868;-75
2021/11/08 01:21:42;;;;;;;5.50;4.20;;;;;;;4.25;100.00;98358.59;5081130;28;20203;-73
2021/11/08 01:24:11;;;;;;;4.60;3.63;;;;;;;4.15;100.00;98357.59;5080251;28;20443;-77
2021/11/08 01:26:39;;;;;;;3.87;3.57;;;;;;;4.03;100.00;98365.44;5075702;28;20198;-77
2021/11/08 01:29:09;;;;;;;5.57;4.40;;;;;;;3.93;100.00;98361.81;5078952;28;20299;-75
2021/11/08 01:31:37;;;;;;;4.13;3.77;;;;;;;3.86;100.00;98363.22;5047400;28;20221;-76
2021/11/08 01:34:05;;;;;;;5.23;3.70;;;;;;;3.76;100.00;98366.50;5070018;28;20694;-76
2021/11/08 01:36:36;;;;;;;6.33;3.60;;;;;;;3.70;100.00;98371.34;5086047;28;20311;-75
2021/11/08 01:39:12;;;;;;;5.00;4.10;;;;;;;3.72;100.00;98375.53;5088323;28;20523;-77
2021/11/08 01:41:41;;;;;;;5.40;4.10;;;;;;;3.70;100.00;98372.19;5088634;28;20267;-77
2021/11/08 01:44:10;;;;;;;5.30;3.43;;;;;;;3.72;100.00;98367.69;5078160;28;20214;-76
2021/11/08 01:46:39;;;;;;;3.73;3.43;;;;;;;3.70;100.00;98376.59;5045819;28;20611;-76
2021/11/08 01:49:07;;;;;;;4.37;4.07;;;;;;;3.66;100.00;98368.13;5080525;28;20202;-75
2021/11/08 01:51:36;;;;;;;9.27;4.57;;;;;;;3.67;100.00;98369.81;5081225;28;20218;-76
2021/11/08 01:54:05;;;;;;;7.33;3.60;;;;;;;3.53;100.00;98375.19;5087265;28;20752;-76
2021/11/08 01:56:33;;;;;;;3.80;3.47;;;;;;;3.46;100.00;98386.09;5084142;28;20683;-76
2021/11/08 01:59:01;;;;;;;5.07;3.83;;;;;;;3.38;100.00;98379.72;5081245;28;20751;-76
2021/11/08 02:01:31;;;;;;;10.00;4.20;;;;;;;3.30;100.00;98383.72;5078417;28;20228;-76
2021/11/08 02:04:00;;;;;;;4.67;3.63;;;;;;;3.22;100.00;98383.44;5041689;28;20211;-74
2021/11/08 02:06:28;;;;;;;3.33;3.10;;;;;;;3.11;100.00;98391.22;5083746;28;20210;-76
2021/11/08 02:08:56;;;;;;;4.27;3.97;;;;;;;2.98;100.00;98388.63;5081486;28;20199;-73
2021/11/08 02:11:24;;;;;;;5.53;4.20;;;;;;;2.89;100.00;98385.69;5085121;28;20230;-76
2021/11/08 02:13:53;;;;;;;4.57;4.20;;;;;;;2.83;100.00;98404.41;5084323;28;20210;-73
2021/11/08 02:16:21;;;;;;;4.73;4.33;;;;;;;2.79;100.00;98399.50;5074038;28;20582;-76
2021/11/08 02:18:51;;;;;;;4.30;4.00;;;;;;;2.71;100.00;98398.25;5028943;28;20411;-75
2021/11/08 02:21:21;;;;;;;7.00;3.93;;;;;;;2.64;100.00;98396.97;5072300;28;20233;-76
2021/11/08 02:23:49;;;;;;;4.83;4.43;;;;;;;2.57;100.00;98409.66;5074093;28;20232;-76
2021/11/08 02:26:18;;;;;;;5.00;4.13;;;;;;;2.51;100.00;98409.22;5076733;28;20202;-76
2021/11/08 02:28:47;;;;;;;5.53;3.70;;;;;;;2.43;100.00;98410.56;5071315;28;20214;-73
2021/11/08 02:31:18;;;;;;;4.77;3.50;;;;;;;2.39;100.00;98411.72;5071091;28;20218;-73
2021/11/08 02:33:47;;;;;;;6.23;4.53;;;;;;;2.32;100.00;98418.31;5044397;28;20205;-74
2021/11/08 02:36:16;;;;;;;4.53;4.13;;;;;;;2.23;100.00;98417.13;5079823;28;20203;-76
2021/11/08 02:38:48;;;;;;;5.97;3.77;;;;;;;2.15;100.00;98414.19;5034841;28;20660;-73
2021/11/08 02:41:16;;;;;;;5.40;4.13;;;;;;;2.08;100.00;98412.88;5077284;28;20232;-75
2021/11/08 02:43:45;;;;;;;6.33;3.90;;;;;;;2.05;100.00;98416.53;5074803;28;20217;-73
2021/11/08 02:46:15;;;;;;;5.00;4.50;;;;;;;2.00;100.00;98413.41;5067873;28;20856;-75
2021/11/08 02:48:44;;;;;;;4.07;3.63;;;;;;;1.88;100.00;98415.84;5069462;28;21075;-75
2021/11/08 02:51:17;;;;;;;4.07;3.77;;;;;;;1.80;100.00;98418.13;5078941;28;20234;-73
2021/11/08 02:53:50;;;;;;;5.07;3.97;;;;;;;1.70;100.00;98411.81;5039825;28;20218;-75
2021/11/08 02:56:20;;;;;;;5.93;4.17;;;;;;;1.66;100.00;98418.16;5075355;28;20240;-73
2021/11/08 02:58:48;;;;;;;5.30;3.90;;;;;;;1.61;100.00;98428.91;5081653;28;20397;-75
2021/11/08 03:01:20;;;;;;;6.87;4.23;;;;;;;1.56;100.00;98423.13;5067295;28;20238;-73
2021/11/08 03:03:52;;;;;;;4.17;3.87;;;;;;;1.52;100.00;98419.03;5074037;28;20837;-75
2021/11/08 03:06:24;;;;;;;9.27;4.70;;;;;;;1.51;100.00;98423.41;5077749;28;20202;-73
2021/11/08 03:08:55;;;;;;;6.43;4.57;;;;;;;1.49;100.00;98424.44;5042227;28;21258;-76
2021/11/08 03:11:23;;;;;;;5.50;4.00;;;;;;;1.47;100.00;98428.94;5075846;28;20230;-73
2021/11/08 03:13:59;;;;;;;4.73;4.10;;;;;;;1.43;100.00;98423.03;5078827;28;20411;-76
2021/11/08 03:16:35;;;;;;;5.23;4.73;;;;;;;1.42;100.00;98431.81;5078704;28;20201;-73
2021/11/08 03:19:14;;;;;;;5.07;4.20;;;;;;;1.42;100.00;98430.06;5068539;28;20206;-75
2021/11/08 03:21:42;;;;;;;4.87;4.37;;;;;;;1.43;100.00;98423.03;5076379;28;20213;-75
2021/11/08 03:24:15;;;;;;;4.17;3.87;;;;;;;1.37;100.00;98431.28;5046188;28;20217;-75
2021/11/08 03:26:46;;;;;;;4.50;4.20;;;;;;;1.37;100.00;98436.50;5075470;28;20232;-76
2021/11/08 03:29:16;;;;;;;8.07;4.37;;;;;;;1.39;100.00;98437.22;5079054;28;20210;-73
2021/11/08 03:31:49;;;;;;;4.50;3.70;;;;;;;1.35;100.00;98435.75;5079445;28;20312;-73
2021/11/08 03:34:17;;;;;;;4.90;4.43;;;;;;;1.36;100.00;98440.03;5070648;28;20653;-73
2021/11/08 03:36:49;;;;;;;6.80;4.50;;;;;;;1.40;100.00;98441.53;5080308;28;20591;-76
2021/11/08 03:39:26;;;;;;;5.83;4.63;;;;;;;1.38;100.00;98438.16;5078463;28;20205;-73
2021/11/08 03:41:54;;;;;;;5.63;4.33;;;;;;;1.39;100.00;98437.22;5066323;28;20571;-73
2021/11/08 03:44:22;;;;;;;5.07;4.47;;;;;;;1.41;100.00;98440.59;5088869;28;20201;-75
2021/11/08 03:46:50;;;;;;;4.50;4.10;;;;;;;1.38;100.00;98444.25;5077244;28;20232;-72
2021/11/08 03:49:18;;;;;;;6.07;4.63;;;;;;;1.42;100.00;98445.72;5068193;28;20217;-74
2021/11/08 03:51:46;;;;;;;6.80;4.53;;;;;;;1.44;100.00;98445.63;5077684;28;20228;-72
2021/11/08 03:54:15;;;;;;;5.37;4.83;;;;;;;1.41;100.00;98443.19;5084439;28;20194;-75
2021/11/08 03:56:44;;;;;;;5.57;4.50;;;;;;;1.47;100.00;98449.81;5036798;28;20224;-72
2021/11/08 03:59:12;;;;;;;4.50;4.10;;;;;;;1.47;100.00;98448.03;5074968;28;20229;-74
2021/11/08 04:01:40;;;;;;;9.13;5.17;;;;;;;1.52;100.00;98458.22;5072134;28;20209;-72
2021/11/08 04:04:08;;;;;;;5.60;5.10;;;;;;;1.57;100.00;98459.63;5064195;28;20409;-75
2021/11/08 04:06:37;;;;;;;7.13;5.60;;;;;;;1.58;100.00;98458.69;5078917;28;20585;-72
2021/11/08 04:09:07;;;;;;;8.33;6.67;;;;;;;1.67;100.00;98457.25;5079229;28;20198;-74
2021/11/08 04:11:35;;;;;;;6.10;5.43;;;;;;;1.63;100.00;98453.16;5047938;28;20232;-73
2021/11/08 04:14:06;;;;;;;7.03;5.13;;;;;;;1.65;100.00;98460.91;5074422;28;20212;-75
2021/11/08 04:16:34;;;;;;;5.80;4.83;;;;;;;1.66;100.00;98455.56;5082599;28;20205;-75
2021/11/08 04:19:03;;;;;;;5.40;4.90;;;;;;;1.70;100.00;98451.81;5063122;28;20399;-75
2021/11/08 04:21:32;;;;;;;6.37;5.73;;;;;;;1.73;100.00;98454.28;5081079;28;20235;-76
2021/11/08 04:24:01;;;;;;;7.30;5.47;;;;;;;1.72;100.00;98454.34;5078555;28;20214;-75
2021/11/08 04:26:29;;;;;;;6.73;5.30;;;;;;;1.73;100.00;98454.28;5052418;28;20677;-75
2021/11/08 04:29:01;;;;;;;7.47;5.57;;;;;;;1.76;100.00;98450.59;5068779;28;20202;-75
2021/11/08 04:31:33;;;;;;;7.00;5.57;;;;;;;1.79;100.00;98453.03;5064504;28;20268;-75
2021/11/08 04:34:05;;;;;;;8.20;5.23;;;;;;;1.80;100.00;98461.72;5060705;28;20761;-76
2021/11/08 04:37:00;;;;;;;6.47;5.13;;;;;;;1.87;100.00;98460.38;5080618;28;20655;-72
2021/11/08 04:39:32;;;;;;;5.37;4.97;;;;;;;1.95;100.00;98467.75;5072752;28;20213;-72
2021/11/08 04:42:05;;;;;;;6.57;5.97;;;;;;;1.99;100.00;98464.81;5037989;28;20287;-73
2021/11/08 04:44:50;;;;;;;7.60;5.50;;;;;;;2.11;100.00;98467.63;5037144;28;20286;-73
2021/11/08 04:47:51;;;;;;;6.10;5.03;;;;;;;2.10;100.00;98460.72;5070320;28;20202;-73
2021/11/08 04:50:26;;;;;;;9.83;6.17;;;;;;;2.21;100.00;98458.22;5075194;28;20372;-72
2021/11/08 04:53:12;;;;;;;6.73;5.57;;;;;;;2.16;100.00;98463.75;5077712;28;20224;-73
2021/11/08 05:24:13;;;;;;;6.40;5.83;;;;;;;2.77;100.00;98488.59;5075068;28;20208;-77
2021/11/08 05:32:09;;;;;;;6.93;6.23;;;;;;;2.80;100.00;98491.00;5054381;28;20490;-74
2021/11/08 05:34:37;;;;;;;7.67;6.13;;;;;;;2.73;100.00;98494.97;5070651;28;20209;-78
2021/11/08 05:37:08;;;;;;;8.53;6.50;;;;;;;2.81;100.00;98499.72;5071497;28;20214;-74
2021/11/08 05:39:37;;;;;;;7.90;6.93;;;;;;;2.72;100.00;98499.38;5078075;28;20225;-75
2021/11/08 05:42:06;;;;;;;6.87;6.17;;;;;;;2.75;100.00;98500.94;5089339;28;20214;-78
2021/11/08 05:44:37;;;;;;;6.43;5.93;;;;;;;2.73;100.00;98501.06;5076701;28;20476;-76
2021/11/08 05:47:06;;;;;;;6.80;6.10;;;;;;;2.73;100.00;98498.44;5057095;28;21402;-78
2021/11/08 05:49:34;;;;;;;7.80;7.00;;;;;;;2.71;100.00;98499.47;5076990;28;20222;-76
2021/11/08 05:52:04;;;;;;;9.13;6.67;;;;;;;2.74;100.00;98507.13;5081619;28;20221;-78
2021/11/08 05:54:33;;;;;;;11.40;6.50;;;;;;;2.78;100.00;98513.81;5081098;28;20217;-76
2021/11/08 05:57:24;;;;;;;6.23;5.63;;;;;;;2.73;100.00;98514.16;5084877;28;20500;-78
2021/11/08 06:00:25;;;;;;;6.90;6.23;;;;;;;2.79;100.00;98512.06;5076975;28;20423;-78
2021/11/08 06:50:01;;;;;;;37.30;21.67;;;;;;;2.97;100.00;98568.44;5057699;28;20225;-76
2021/11/08 06:52:30;;;;;;;14.13;11.60;;;;;;;3.01;100.00;98571.69;5044298;28;20657;-79
2021/11/08 06:55:00;;;;;;;17.13;11.00;;;;;;;3.02;100.00;98574.19;5075442;28;20201;-75
2021/11/08 06:57:45;;;;;;;11.63;8.93;;;;;;;3.07;100.00;98576.53;5082156;28;20229;-78
2021/11/08 07:04:04;;;;;;;8.17;6.70;;;;;;;3.26;100.00;98580.53;5071363;28;20521;-78
2021/11/08 07:06:48;;;;;;;11.47;8.13;;;;;;;3.24;100.00;98585.06;5036403;28;20590;-78
2021/11/08 07:12:54;;;;;;;11.00;7.30;;;;;;;3.31;100.00;98591.53;5077638;28;20226;-77
2021/11/08 07:15:23;;;;;;;8.20;7.47;;;;;;;3.39;100.00;98601.50;5072668;28;20295;-77
2021/11/08 07:17:53;;;;;;;9.50;8.50;;;;;;;3.41;100.00;98603.06;5077404;28;20685;-78
2021/11/08 07:20:22;;;;;;;9.33;8.43;;;;;;;3.52;100.00;98604.13;5063605;28;20457;-78
2021/11/08 07:22:50;;;;;;;12.73;8.13;;;;;;;3.59;100.00;98602.75;5042857;28;20214;-76
2021/11/08 07:25:20;;;;;;;7.77;6.80;;;;;;;3.67;100.00;98610.09;5072178;28;20850;-77
2021/11/08 07:27:48;;;;;;;7.83;7.10;;;;;;;3.67;100.00;98610.97;5083002;28;20665;-77
2021/11/08 07:30:16;;;;;;;7.80;7.10;;;;;;;3.69;100.00;98609.06;5080739;28;20537;-77
2021/11/08 07:32:44;;;;;;;13.07;7.93;;;;;;;3.80;100.00;98612.72;5074676;28;20502;-77
2021/11/08 07:35:14;;;;;;;21.77;16.77;;;;;;;3.94;100.00;98612.59;5062798;28;20210;-76
2021/11/08 07:37:41;;;;;;;14.17;12.40;;;;;;;3.96;100.00;98612.50;5051953;28;20224;-79
2021/11/08 07:40:11;;;;;;;16.17;10.17;;;;;;;3.96;100.00;98613.34;5080228;28;20709;-75
2021/11/08 07:42:42;;;;;;;11.03;7.37;;;;;;;4.12;100.00;98612.28;5074201;28;20206;-78
2021/11/08 07:45:10;;;;;;;10.70;7.87;;;;;;;4.17;100.00;98615.41;5077806;28;20202;-76
2021/11/08 07:47:38;;;;;;;9.53;7.30;;;;;;;4.25;100.00;98617.50;5084749;28;20209;-76
2021/11/08 07:50:07;;;;;;;17.87;7.73;;;;;;;4.32;100.00;98609.06;5076777;28;20677;-76
2021/11/08 07:52:36;;;;;;;8.00;7.20;;;;;;;4.38;100.00;98622.72;5069025;28;20210;-78
2021/11/08 07:55:06;;;;;;;10.60;6.87;;;;;;;4.53;100.00;98611.13;5053095;28;20226;-76
2021/11/08 07:57:34;;;;;;;13.87;9.13;;;;;;;4.72;100.00;98612.41;5076942;28;20363;-77
2021/11/08 08:00:02;;;;;;;7.43;6.73;;;;;;;4.73;100.00;98612.31;5080461;28;20222;-75
2021/11/08 08:02:30;;;;;;;8.70;7.73;;;;;;;4.82;100.00;98618.69;5079099;28;20198;-78
2021/11/08 08:04:58;;;;;;;10.17;7.03;;;;;;;4.86;100.00;98614.88;5082898;28;20202;-76
2021/11/08 08:07:26;;;;;;;16.10;11.73;;;;;;;4.94;100.00;98606.44;5073857;28;20439;-78
2021/11/08 08:09:56;;;;;;;12.60;11.43;;;;;;;5.04;100.00;98615.31;5059899;28;20656;-76
2021/11/08 08:12:24;;;;;;;7.87;7.17;;;;;;;5.10;100.00;98606.13;5081055;28;20205;-77
2021/11/08 08:14:51;;;;;;;8.70;7.27;;;;;;;5.04;100.00;98615.31;5079599;28;20241;-76
2021/11/08 08:17:20;;;;;;;7.80;6.17;;;;;;;5.24;100.00;98620.03;5074602;28;20609;-78
2021/11/08 08:19:48;;;;;;;8.10;6.70;;;;;;;5.27;100.00;98619.81;5074281;28;20226;-79
2021/11/08 08:22:16;;;;;;;6.33;5.83;;;;;;;5.25;100.00;98621.72;5075050;28;20470;-78
2021/11/08 08:24:44;;;;;;;8.07;6.97;;;;;;;5.31;100.00;98618.63;5061954;28;20582;-79
2021/11/08 08:27:13;;;;;;;7.13;6.43;;;;;;;5.63;100.00;98625.88;5057448;28;20570;-78
2021/11/08 08:29:41;;;;;;;8.10;6.43;;;;;;;5.67;100.00;98624.69;5075357;28;20306;-76
2021/11/08 08:32:10;;;;;;;12.97;7.10;;;;;;;5.53;100.00;98617.84;5072885;28;20745;-78
2021/11/08 08:34:55;;;;;;;9.33;7.00;;;;;;;5.56;100.00;98617.59;5081426;28;20911;-78
2021/11/08 08:37:23;;;;;;;7.93;6.00;;;;;;;5.62;100.00;98617.13;5079493;28;20242;-78
2021/11/08 08:39:52;;;;;;;9.33;6.50;;;;;;;5.71;100.00;98612.97;5038028;28;20508;-75
2021/11/08 08:42:22;;;;;;;11.03;7.07;;;;;;;5.90;100.00;98608.94;5077926;28;20213;-78
2021/11/08 08:44:51;;;;;;;7.70;6.47;;;;;;;5.91;100.00;98613.25;5076918;28;20331;-77
2021/11/08 08:47:20;;;;;;;9.90;7.30;;;;;;;5.91;100.00;98605.34;5079712;28;20213;-78
2021/11/08 08:49:48;;;;;;;9.53;6.40;;;;;;;6.33;100.00;98613.50;5083831;28;20225;-75
2021/11/08 08:52:17;;;;;;;7.87;6.67;;;;;;;6.03;100.00;98611.44;5085875;28;20209;-77
2021/11/08 08:54:45;;;;;;;10.90;6.67;;;;;;;6.23;100.00;98600.22;5077434;28;20720;-76
2021/11/08 08:57:13;;;;;;;13.33;10.77;;;;;;;6.24;100.00;98603.66;5063096;28;20213;-78
2021/11/08 08:59:43;;;;;;;11.07;8.13;;;;;;;6.13;100.00;98606.31;5088393;28;20234;-78
2021/11/08 09:02:12;;;;;;;16.30;6.57;;;;;;;6.28;100.00;98606.91;5051757;28;20220;-76
2021/11/08 09:04:40;;;;;;;8.70;7.23;;;;;;;6.36;100.00;98605.34;5085540;28;20674;-78
2021/11/08 09:07:09;;;;;;;8.80;6.60;;;;;;;6.13;100.00;98615.06;5086910;28;20207;-76
2021/11/08 09:09:38;;;;;;;13.60;7.43;;;;;;;6.26;100.00;98621.97;5077454;28;20226;-78
2021/11/08 09:12:07;;;;;;;11.53;5.93;;;;;;;6.48;100.00;98605.31;5086026;28;20205;-75
2021/11/08 09:14:37;;;;;;;8.83;6.27;;;;;;;6.49;100.00;98610.47;5078262;28;20351;-78
2021/11/08 09:17:07;;;;;;;9.10;5.43;;;;;;;6.54;100.00;98615.34;5056999;28;21231;-75
2021/11/08 09:19:36;;;;;;;6.37;5.33;;;;;;;6.49;100.00;98620.16;5083427;28;20476;-77
2021/11/08 09:22:04;;;;;;;12.23;8.33;;;;;;;6.31;100.00;98625.09;5082448;28;20206;-75
2021/11/08 09:24:32;;;;;;;6.13;4.87;;;;;;;6.28;100.00;98630.59;5081269;28;20854;-78
2021/11/08 09:27:01;;;;;;;8.70;5.93;;;;;;;6.43;100.00;98633.81;5081000;28;20463;-77
2021/11/08 09:29:29;;;;;;;11.07;5.93;;;;;;;6.46;100.00;98641.47;5078340;28;20944;-79
2021/11/08 09:31:57;;;;;;;8.93;5.60;;;;;;;6.64;100.00;98636.53;5064859;28;20396;-78
2021/11/08 09:34:27;;;;;;;11.30;5.43;;;;;;;6.47;100.00;98637.88;5089374;28;20356;-78
2021/11/08 09:36:58;;;;;;;13.97;6.17;;;;;;;6.59;100.00;98652.69;5086385;28;20766;-78
2021/11/08 09:39:27;;;;;;;7.00;5.97;;;;;;;6.68;100.00;98650.31;5082205;28;20202;-78
2021/11/08 09:41:58;;;;;;;7.77;6.10;;;;;;;6.72;100.00;98651.72;5081406;28;20214;-78
2021/11/08 09:44:27;;;;;;;9.37;5.80;;;;;;;6.85;100.00;98648.94;5071978;28;20455;-78
2021/11/08 09:46:56;;;;;;;7.70;5.27;;;;;;;7.28;100.00;98639.31;5057584;28;20692;-78
2021/11/08 09:49:27;;;;;;;9.13;5.47;;;;;;;7.35;100.00;98640.47;5084701;28;20201;-79
2021/11/08 09:51:57;;;;;;;13.10;5.53;;;;;;;7.93;100.00;98647.91;5084251;28;20198;-78
2021/11/08 09:54:28;;;;;;;9.20;6.50;;;;;;;7.70;100.00;98649.03;5079554;28;20430;-78
2021/11/08 09:56:58;;;;;;;12.67;5.93;;;;;;;7.80;100.00;98653.41;5084169;28;20210;-78
2021/11/08 09:59:27;;;;;;;11.83;5.60;;;;;;;7.85;100.00;98650.38;5081747;28;20705;-78
2021/11/08 10:01:56;;;;;;;7.50;5.93;;;;;;;7.60;100.00;98646.34;5069956;28;20298;-79
2021/11/08 10:04:24;;;;;;;9.60;5.60;;;;;;;7.45;100.00;98646.66;5053265;28;20217;-78
2021/11/08 10:06:53;;;;;;;6.57;5.10;;;;;;;7.65;100.00;98644.16;5084868;28;20202;-78
2021/11/08 10:09:29;;;;;;;11.27;5.40;;;;;;;7.50;100.00;98639.22;5081731;28;20288;-78
2021/11/08 10:11:58;;;;;;;8.50;5.23;;;;;;;7.50;100.00;98641.84;5081021;28;20203;-80
2021/11/08 10:14:26;;;;;;;8.23;5.43;;;;;;;7.43;100.00;98634.56;5082393;28;20881;-78
2021/11/08 10:16:58;;;;;;;8.03;5.33;;;;;;;7.38;100.00;98640.22;5076140;28;20212;-79
2021/11/08 10:19:26;;;;;;;11.67;5.33;;;;;;;7.32;100.00;98632.81;5058277;28;20273;-78
2021/11/08 10:21:57;;;;;;;10.13;5.13;;;;;;;7.10;100.00;98643.34;5087016;28;20613;-79
2021/11/08 10:24:27;;;;;;;9.63;6.10;;;;;;;7.36;100.00;98643.00;5080584;28;20221;-78
2021/11/08 10:26:57;;;;;;;10.80;5.77;;;;;;;7.31;100.00;98637.25;5079975;28;20221;-78
2021/11/08 10:29:27;;;;;;;8.47;5.67;;;;;;;7.20;100.00;98640.78;5088008;28;20202;-78
2021/11/08 10:32:11;;;;;;;10.33;5.97;;;;;;;7.31;100.00;98646.97;5080238;28;20202;-75
2021/11/08 10:34:51;;;;;;;9.43;5.63;;;;;;;7.50;100.00;98639.22;5059845;28;20228;-78
2021/11/08 10:37:26;;;;;;;8.03;5.20;;;;;;;7.57;100.00;98638.69;5074925;28;20198;-76
2021/11/08 10:39:55;;;;;;;8.13;5.67;;;;;;;7.68;100.00;98649.16;5086801;28;20225;-78
2021/11/08 10:42:25;;;;;;;6.47;4.77;;;;;;;7.57;100.00;98643.97;5079009;28;20392;-79
2021/11/08 10:44:55;;;;;;;8.50;4.80;;;;;;;7.53;100.00;98649.50;5083224;28;20210;-79
2021/11/08 10:47:24;;;;;;;7.73;5.40;;;;;;;7.73;100.00;98652.25;5071648;28;20198;-79
2021/11/08 10:49:55;;;;;;;9.77;5.83;;;;;;;7.74;100.00;98651.28;5056253;28;20241;-79
2021/11/08 10:52:29;;;;;;;6.30;4.90;;;;;;;7.63;100.00;98649.56;5073689;28;20216;-79
2021/11/08 10:54:58;;;;;;;7.33;4.70;;;;;;;7.53;100.00;98657.41;5085274;28;20610;-79
2021/11/08 10:57:27;;;;;;;9.47;4.60;;;;;;;7.64;100.00;98656.50;5075298;28;20206;-79
2021/11/08 10:59:57;;;;;;;5.60;4.57;;;;;;;7.60;100.00;98648.97;5081360;28;20217;-79
2021/11/08 11:02:29;;;;;;;6.63;4.67;;;;;;;7.89;100.00;98662.34;5068511;28;20729;-78
2021/11/08 11:04:58;;;;;;;14.07;5.30;;;;;;;7.77;100.00;98668.66;5081279;28;20574;-78
2021/11/08 11:07:31;;;;;;;9.43;5.93;;;;;;;7.60;100.00;98662.16;5041173;28;20206;-75
2021/11/08 11:10:04;;;;;;;6.73;4.97;;;;;;;7.64;100.00;98663.56;5078551;28;20317;-77
2021/11/08 11:12:32;;;;;;;8.57;5.17;;;;;;;7.93;100.00;98670.84;5082562;28;20210;-76
2021/11/08 11:15:03;;;;;;;9.70;5.50;;;;;;;7.72;100.00;98671.69;5077463;28;20245;-78
2021/11/08 11:17:33;;;;;;;8.00;5.10;;;;;;;7.59;100.00;98665.78;5074138;28;20208;-72
2021/11/08 11:20:07;;;;;;;6.00;4.83;;;;;;;7.75;100.00;98671.41;5064839;28;20231;-75
2021/11/08 11:22:40;;;;;;;8.93;4.50;;;;;;;7.74;100.00;98661.00;5075707;28;20544;-77
2021/11/08 11:25:11;;;;;;;12.50;4.93;;;;;;;7.53;100.00;98653.91;5049757;28;20208;-79
2021/11/08 11:27:46;;;;;;;7.77;4.87;;;;;;;7.74;100.00;98655.72;5078563;28;20898;-78
2021/11/08 11:30:18;;;;;;;8.43;4.97;;;;;;;7.62;100.00;98655.81;5077385;28;20217;-76
2021/11/08 11:32:56;;;;;;;10.27;4.33;;;;;;;7.72;100.00;98653.22;5078737;28;20448;-79
2021/11/08 11:35:27;;;;;;;6.97;4.37;;;;;;;7.50;100.00;98641.84;5064719;28;20736;-76
2021/11/08 11:38:00;;;;;;;9.40;4.50;;;;;;;7.69;100.00;98640.28;5074422;28;20209;-78
2021/11/08 11:40:29;;;;;;;8.53;5.40;;;;;;;7.95;100.00;98639.88;5049775;28;20234;-75
2021/11/08 11:43:02;;;;;;;5.90;3.87;;;;;;;7.98;100.00;98642.25;5075008;28;20253;-76
2021/11/08 11:45:43;;;;;;;8.23;4.53;;;;;;;7.63;100.00;98636.38;5077546;28;20707;-75
2021/11/08 11:48:11;;;;;;;7.57;4.27;;;;;;;7.76;100.00;98636.16;5081064;28;20267;-78
2021/11/08 11:51:00;;;;;;;10.03;5.47;;;;;;;7.81;100.00;98633.13;5065185;28;20277;-78
2021/11/08 11:53:32;;;;;;;10.23;5.93;;;;;;;7.98;100.00;98636.97;5060086;28;21690;-76
2021/11/08 11:56:00;;;;;;;6.73;4.90;;;;;;;7.99;100.00;98637.81;5054871;28;20233;-79
2021/11/08 11:58:29;;;;;;;5.53;4.07;;;;;;;7.85;100.00;98639.00;5072573;28;20206;-77
2021/11/08 12:00:58;;;;;;;6.67;4.00;;;;;;;7.96;100.00;98636.25;5078711;28;20237;-79
2021/11/08 12:03:28;;;;;;;5.07;3.90;;;;;;;7.92;100.00;98633.03;5075767;28;20213;-76
2021/11/08 12:05:57;;;;;;;6.77;4.33;;;;;;;7.79;100.00;98641.19;5086581;28;20198;-79
2021/11/08 12:08:28;;;;;;;8.50;3.90;;;;;;;8.05;100.00;98632.84;5067785;28;20594;-76
2021/11/08 12:10:58;;;;;;;8.43;3.70;;;;;;;7.76;100.00;98644.06;5050537;28;20236;-77
2021/11/08 12:13:29;;;;;;;6.33;3.90;;;;;;;7.87;100.00;98643.16;5073694;28;20688;-75
2021/11/08 12:15:58;;;;;;;6.83;3.67;;;;;;;7.90;100.00;98647.34;5080123;28;20226;-78
2021/11/08 12:18:26;;;;;;;7.83;4.60;;;;;;;7.45;100.00;98646.66;5080588;28;20207;-75
2021/11/08 12:20:56;;;;;;;4.10;3.70;;;;;;;7.45;100.00;98644.03;5082424;28;20222;-78
2021/11/08 12:23:26;;;;;;;7.23;3.57;;;;;;;7.50;100.00;98649.75;5071489;28;20213;-75
2021/11/08 12:25:55;;;;;;;9.10;5.03;;;;;;;7.44;100.00;98646.78;5081371;28;20197;-77
2021/11/08 12:28:26;;;;;;;8.20;4.23;;;;;;;7.24;100.00;98642.19;5054863;28;20222;-76
2021/11/08 12:30:56;;;;;;;8.23;3.90;;;;;;;7.48;100.00;98640.28;5083008;28;20721;-77
2021/11/08 12:33:28;;;;;;;8.57;4.27;;;;;;;7.33;100.00;98634.47;5073437;28;20267;-75
2021/11/08 12:35:58;;;;;;;8.77;4.23;;;;;;;7.33;100.00;98634.47;5077660;28;20731;-78
2021/11/08 12:38:28;;;;;;;5.97;3.77;;;;;;;7.15;100.00;98623.66;5064530;28;20202;-76
2021/11/08 12:41:08;;;;;;;7.60;4.57;;;;;;;7.09;100.00;98636.38;5078479;28;20226;-78
2021/11/08 12:43:41;;;;;;;5.30;3.73;;;;;;;7.16;100.00;98626.19;5048356;28;20224;-78
2021/11/08 12:46:11;;;;;;;7.20;3.97;;;;;;;7.26;100.00;98622.78;5078160;28;20202;-76
2021/11/08 12:48:40;;;;;;;5.93;3.40;;;;;;;7.19;100.00;98618.03;5078653;28;20697;-78
2021/11/08 12:51:09;;;;;;;22.77;14.20;;;;;;;7.38;100.00;98624.38;5079447;28;20222;-78
2021/11/08 12:53:40;;;;;;;5.40;3.63;;;;;;;7.24;100.00;98621.09;5067815;28;20420;-77
2021/11/08 12:56:21;;;;;;;10.17;4.17;;;;;;;7.29;100.00;98627.78;5079273;28;20751;-77
2021/11/08 12:58:57;;;;;;;4.97;3.70;;;;;;;7.55;100.00;98615.06;5044654;28;20787;-78
2021/11/08 13:01:37;;;;;;;9.40;3.60;;;;;;;7.48;100.00;98613.91;5066098;28;20599;-76
2021/11/08 13:04:08;;;;;;;4.17;3.20;;;;;;;7.34;100.00;98615.91;5075068;28;20228;-78
2021/11/08 13:06:37;;;;;;;6.50;3.33;;;;;;;7.68;100.00;98621.00;5074046;28;20206;-77
2021/11/08 13:09:10;;;;;;;6.50;3.00;;;;;;;7.76;100.00;98622.13;5065342;28;20579;-78
2021/11/08 13:11:43;;;;;;;6.20;3.53;;;;;;;7.66;100.00;98614.16;5078520;28;20295;-78
2021/11/08 13:14:23;;;;;;;7.93;3.57;;;;;;;7.65;100.00;98608.06;5075933;28;20206;-78
2021/11/08 13:16:52;;;;;;;6.60;3.23;;;;;;;7.46;100.00;98618.47;5040503;28;20624;-78